createdAt,value
2023-03-30T00:00:47.715Z,11.20
2023-03-30T00:03:23.198Z,13.80
2023-03-30T00:05:57.143Z,13.10
2023-03-30T00:08:30.682Z,13.60
2023-03-30T00:11:07.100Z,12.00
2023-03-30T00:13:41.648Z,12.60
2023-03-30T00:16:16.084Z,12.50
2023-03-30T00:18:49.214Z,9.60
2023-03-30T00:21:22.178Z,8.60
2023-03-30T00:23:55.115Z,10.00
2023-03-30T00:26:28.855Z,11.80
2023-03-30T00:29:01.566Z,11.80
2023-03-30T00:31:34.413Z,10.40
2023-03-30T00:34:07.155Z,12.10
2023-03-30T00:36:39.971Z,11.70
2023-03-30T00:39:13.283Z,11.30
2023-03-30T00:41:46.443Z,10.60
2023-03-30T00:44:48.923Z,10.60
2023-03-30T00:47:21.824Z,10.00
2023-03-30T00:49:55.194Z,10.60
2023-03-30T00:52:28.355Z,11.10
2023-03-30T00:55:01.791Z,10.60
2023-03-30T00:57:35.109Z,8.80
2023-03-30T01:00:11.052Z,10.70
2023-03-30T01:02:49.146Z,11.20
2023-03-30T01:05:24.385Z,11.70
2023-03-30T01:07:58.433Z,11.60
2023-03-30T01:10:31.183Z,11.50
2023-03-30T01:13:03.842Z,12.80
2023-03-30T01:15:43.126Z,12.40
2023-03-30T01:18:33.637Z,11.60
2023-03-30T01:21:36.167Z,12.40
2023-03-30T01:24:35.362Z,11.90
2023-03-30T01:27:22.473Z,12.40
2023-03-30T01:30:25.673Z,12.80
2023-03-30T01:33:29.833Z,12.30
2023-03-30T01:36:38.217Z,12.90
2023-03-30T01:39:40.621Z,12.00
2023-03-30T01:42:22.164Z,12.50
2023-03-30T01:45:02.492Z,12.00
2023-03-30T01:47:40.063Z,11.80
2023-03-30T01:50:19.365Z,11.80
2023-03-30T01:52:57.581Z,11.10
2023-03-30T01:55:35.805Z,10.80
2023-03-30T01:58:13.922Z,9.70
2023-03-30T02:00:52.122Z,10.00
2023-03-30T02:03:28.734Z,9.40
2023-03-30T02:06:06.553Z,9.40
2023-03-30T02:08:41.544Z,9.20
2023-03-30T02:11:14.642Z,9.70
2023-03-30T02:13:48.234Z,9.10
2023-03-30T02:16:29.087Z,9.20
2023-03-30T02:19:02.475Z,8.30
2023-03-30T02:21:35.781Z,8.80
2023-03-30T02:24:18.074Z,8.10
2023-03-30T02:26:53.276Z,8.90
2023-03-30T02:29:25.723Z,9.30
2023-03-30T02:32:01.865Z,9.10
2023-03-30T02:34:49.665Z,9.60
2023-03-30T02:37:43.993Z,10.60
2023-03-30T02:43:07.493Z,8.70
2023-03-30T02:45:53.113Z,9.20
2023-03-30T02:48:41.732Z,9.60
2023-03-30T02:51:33.604Z,10.30
2023-03-30T02:54:36.152Z,11.30
2023-03-30T02:57:34.944Z,10.20
2023-03-30T03:00:33.283Z,7.90
2023-03-30T03:03:10.965Z,12.70
2023-03-30T03:05:45.779Z,9.80
2023-03-30T03:08:24.118Z,10.40
2023-03-30T03:10:57.306Z,10.80
2023-03-30T03:13:29.998Z,11.30
2023-03-30T03:16:05.006Z,11.80
2023-03-30T03:18:40.265Z,11.30
2023-03-30T03:21:14.408Z,11.40
2023-03-30T03:23:48.673Z,11.70
2023-03-30T03:26:24.562Z,11.50
2023-03-30T03:28:57.637Z,11.20
2023-03-30T03:31:31.033Z,11.50
2023-03-30T03:34:04.630Z,13.10
2023-03-30T03:36:56.424Z,12.10
2023-03-30T03:39:31.783Z,12.50
2023-03-30T03:42:15.433Z,11.70
2023-03-30T03:44:58.768Z,12.20
2023-03-30T03:47:33.617Z,12.00
2023-03-30T03:50:10.183Z,11.70
2023-03-30T03:52:45.795Z,12.20
2023-03-30T03:55:18.734Z,11.00
2023-03-30T03:57:52.445Z,11.20
2023-03-30T04:00:27.254Z,10.60
2023-03-30T04:03:00.385Z,10.80
2023-03-30T04:05:33.837Z,11.40
2023-03-30T04:08:11.129Z,12.30
2023-03-30T04:10:45.704Z,11.90
2023-03-30T04:13:30.668Z,13.40
2023-03-30T04:16:39.690Z,12.70
2023-03-30T04:19:42.381Z,13.00
2023-03-30T04:22:25.883Z,13.40
2023-03-30T04:25:15.419Z,12.90
2023-03-30T04:28:12.168Z,12.50
2023-03-30T04:31:06.281Z,12.40
2023-03-30T04:33:52.008Z,11.50
2023-03-30T04:36:47.782Z,10.00
2023-03-30T04:39:31.116Z,12.40
2023-03-30T04:42:14.477Z,10.80
2023-03-30T04:45:05.865Z,11.00
2023-03-30T04:48:05.401Z,12.80
2023-03-30T04:51:10.256Z,12.60
2023-03-30T04:54:09.272Z,14.10
2023-03-30T04:57:14.720Z,12.90
2023-03-30T04:59:54.316Z,13.60
2023-03-30T05:02:48.111Z,14.70
2023-03-30T05:05:41.089Z,13.80
2023-03-30T05:08:21.578Z,14.40
2023-03-30T05:11:29.441Z,12.90
2023-03-30T05:14:25.656Z,13.40
2023-03-30T05:17:25.202Z,13.70
2023-03-30T05:20:18.881Z,13.80
2023-03-30T05:23:10.899Z,12.40
2023-03-30T05:26:04.965Z,12.40
2023-03-30T05:28:37.929Z,12.30
2023-03-30T05:31:30.798Z,12.70
2023-03-30T05:34:26.781Z,11.70
2023-03-30T05:37:05.904Z,11.20
2023-03-30T05:39:41.777Z,11.00
2023-03-30T05:42:34.759Z,11.20
2023-03-30T05:45:29.440Z,11.30
2023-03-30T05:48:08.417Z,11.90
2023-03-30T05:50:52.476Z,12.30
2023-03-30T05:53:34.910Z,11.80
2023-03-30T05:56:44.057Z,11.90
2023-03-30T05:59:43.154Z,11.40
2023-03-30T06:02:49.567Z,11.40
2023-03-30T06:05:24.949Z,11.60
2023-03-30T06:08:01.653Z,11.60
2023-03-30T06:10:37.045Z,12.30
2023-03-30T06:13:14.493Z,11.20
2023-03-30T06:15:53.558Z,11.80
2023-03-30T06:18:29.236Z,11.50
2023-03-30T06:21:15.215Z,11.80
2023-03-30T06:23:57.240Z,10.80
2023-03-30T06:26:33.176Z,11.20
2023-03-30T06:29:06.737Z,10.90
2023-03-30T06:34:30.585Z,9.60
2023-03-30T06:37:03.867Z,8.80
2023-03-30T06:39:38.218Z,10.00
2023-03-30T06:42:12.303Z,9.40
2023-03-30T06:45:16.976Z,8.30
2023-03-30T06:47:49.568Z,8.40
2023-03-30T06:50:23.683Z,9.10
2023-03-30T06:52:56.500Z,9.80
2023-03-30T06:55:29.895Z,9.30
2023-03-30T06:58:03.492Z,6.80
2023-03-30T07:00:36.382Z,8.40
2023-03-30T07:03:30.332Z,8.80
2023-03-30T07:06:12.971Z,7.90
2023-03-30T07:08:46.145Z,8.00
2023-03-30T07:11:22.916Z,8.40
2023-03-30T07:13:58.706Z,7.90
2023-03-30T07:16:32.347Z,8.40
2023-03-30T07:19:07.017Z,7.80
2023-03-30T07:21:40.336Z,8.70
2023-03-30T07:24:13.811Z,8.10
2023-03-30T07:26:46.862Z,7.20
2023-03-30T07:29:19.561Z,9.00
2023-03-30T07:31:57.229Z,8.40
2023-03-30T07:34:29.913Z,7.10
2023-03-30T07:37:03.954Z,7.90
2023-03-30T07:39:38.249Z,7.50
2023-03-30T07:42:13.898Z,6.50
2023-03-30T07:44:46.914Z,7.50
2023-03-30T07:47:22.358Z,7.20
2023-03-30T07:49:56.189Z,7.10
2023-03-30T07:52:30.124Z,8.50
2023-03-30T07:55:08.054Z,7.40
2023-03-30T07:57:54.623Z,6.70
2023-03-30T08:00:28.320Z,5.70
2023-03-30T08:03:39.957Z,5.50
2023-03-30T08:06:13.672Z,5.40
2023-03-30T08:08:49.896Z,6.10
2023-03-30T08:11:23.148Z,6.00
2023-03-30T08:13:56.324Z,5.40
2023-03-30T08:16:29.402Z,6.00
2023-03-30T08:19:02.425Z,5.50
2023-03-30T08:21:37.514Z,5.70
2023-03-30T08:24:11.661Z,5.60
2023-03-30T08:26:45.585Z,5.70
2023-03-30T08:29:19.105Z,5.70
2023-03-30T08:34:23.466Z,5.70
2023-03-30T08:36:58.456Z,7.30
2023-03-30T08:39:33.690Z,6.00
2023-03-30T08:42:41.204Z,6.30
2023-03-30T08:45:15.737Z,5.50
2023-03-30T08:47:54.974Z,5.10
2023-03-30T08:50:34.513Z,5.40
2023-03-30T08:53:09.635Z,5.30
2023-03-30T08:55:48.678Z,5.10
2023-03-30T08:58:28.824Z,5.30
2023-03-30T09:01:10.552Z,5.00
2023-03-30T09:03:50.611Z,5.20
2023-03-30T09:06:31.278Z,5.30
2023-03-30T09:09:07.404Z,5.20
2023-03-30T09:11:42.175Z,4.70
2023-03-30T09:14:23.249Z,5.10
2023-03-30T09:17:02.242Z,5.20
2023-03-30T09:19:45.462Z,5.70
2023-03-30T09:22:20.665Z,5.30
2023-03-30T09:24:54.005Z,5.80
2023-03-30T09:27:47.438Z,4.70
2023-03-30T09:30:26.947Z,5.40
2023-03-30T09:33:07.074Z,4.90
2023-03-30T09:35:43.372Z,5.10
2023-03-30T09:38:16.946Z,4.70
2023-03-30T09:43:38.273Z,4.80
2023-03-30T09:46:11.895Z,5.10
2023-03-30T09:48:47.022Z,4.60
2023-03-30T09:51:29.806Z,5.00
2023-03-30T09:54:07.517Z,5.10
2023-03-30T09:56:45.609Z,5.00
2023-03-30T09:59:33.001Z,5.10
2023-03-30T10:02:22.024Z,4.60
2023-03-30T10:05:07.004Z,3.90
2023-03-30T10:07:42.541Z,4.10
2023-03-30T10:10:33.551Z,4.30
2023-03-30T10:13:14.424Z,4.80
2023-03-30T10:15:53.943Z,4.70
2023-03-30T10:18:36.715Z,4.10
2023-03-30T10:21:27.957Z,4.60
2023-03-30T10:24:08.547Z,4.30
2023-03-30T10:26:45.075Z,4.40
2023-03-30T10:29:22.167Z,4.00
2023-03-30T10:32:00.302Z,4.00
2023-03-30T10:34:41.006Z,3.90
2023-03-30T10:37:17.930Z,4.60
2023-03-30T10:39:53.975Z,4.30
2023-03-30T10:42:31.495Z,4.00
2023-03-30T10:45:06.223Z,3.50
2023-03-30T10:47:54.278Z,3.60
2023-03-30T10:50:36.276Z,4.20
2023-03-30T10:53:21.706Z,4.10
2023-03-30T10:56:03.815Z,3.90
2023-03-30T10:58:53.226Z,3.80
2023-03-30T11:01:32.553Z,3.70
2023-03-30T11:04:22.594Z,3.70
2023-03-30T11:07:00.173Z,3.90
2023-03-30T11:09:39.898Z,3.00
2023-03-30T11:12:20.317Z,2.90
2023-03-30T11:14:58.231Z,2.80
2023-03-30T11:17:34.644Z,3.10
2023-03-30T11:20:19.182Z,2.50
2023-03-30T11:22:56.674Z,2.90
2023-03-30T11:25:35.355Z,3.40
2023-03-30T11:28:20.607Z,3.70
2023-03-30T11:31:00.186Z,2.90
2023-03-30T11:33:38.323Z,2.60
2023-03-30T11:36:19.154Z,2.90
2023-03-30T11:39:00.033Z,2.80
2023-03-30T11:41:40.396Z,3.10
2023-03-30T11:44:14.184Z,2.90
2023-03-30T11:46:55.773Z,3.10
2023-03-30T11:49:48.118Z,2.50
2023-03-30T11:52:33.196Z,2.70
2023-03-30T11:55:32.262Z,2.90
2023-03-30T11:58:24.168Z,2.90
2023-03-30T12:01:09.496Z,2.90
2023-03-30T12:03:44.712Z,2.70
2023-03-30T12:06:33.422Z,2.50
2023-03-30T12:09:25.234Z,2.90
2023-03-30T12:12:05.138Z,2.40
2023-03-30T12:14:59.748Z,2.60
2023-03-30T12:17:42.017Z,2.30
2023-03-30T12:20:27.530Z,2.50
2023-03-30T12:23:06.808Z,2.50
2023-03-30T12:26:04.984Z,2.90
2023-03-30T12:29:17.354Z,2.30
2023-03-30T12:32:21.140Z,2.40
2023-03-30T12:34:54.038Z,3.20
2023-03-30T12:37:29.558Z,3.60
2023-03-30T12:40:09.470Z,3.20
2023-03-30T12:42:54.645Z,3.40
2023-03-30T12:45:33.656Z,3.30
2023-03-30T12:48:27.904Z,3.60
2023-03-30T12:51:11.810Z,3.70
2023-03-30T12:56:45.901Z,3.30
2023-03-30T12:59:44.873Z,3.70
2023-03-30T13:02:38.925Z,3.50
2023-03-30T13:07:55.928Z,3.20
2023-03-30T13:10:44.515Z,3.40
2023-03-30T13:13:46.136Z,3.00
2023-03-30T13:16:38.898Z,3.40
2023-03-30T13:19:23.301Z,2.50
2023-03-30T13:22:19.588Z,3.10
2023-03-30T13:24:58.407Z,2.90
2023-03-30T13:27:35.835Z,2.70
2023-03-30T13:30:16.801Z,2.60
2023-03-30T13:33:07.515Z,2.90
2023-03-30T13:35:51.265Z,2.50
2023-03-30T13:38:47.642Z,2.50
2023-03-30T13:41:33.365Z,2.90
2023-03-30T13:44:29.173Z,3.70
2023-03-30T13:47:09.252Z,2.80
2023-03-30T13:49:51.550Z,3.20
2023-03-30T13:52:33.359Z,3.20
2023-03-30T13:55:12.082Z,3.20
2023-03-30T13:57:46.015Z,5.20
2023-03-30T14:00:40.628Z,7.90
2023-03-30T14:03:31.866Z,6.80
2023-03-30T14:06:08.322Z,4.50
2023-03-30T14:08:43.071Z,3.10
2023-03-30T14:11:21.591Z,4.10
2023-03-30T14:13:57.144Z,31.00
2023-03-30T14:16:35.381Z,11.50
2023-03-30T14:19:14.928Z,4.70
2023-03-30T14:21:49.286Z,4.70
2023-03-30T14:24:30.083Z,4.60
2023-03-30T14:27:14.933Z,4.50
2023-03-30T14:29:50.468Z,3.80
2023-03-30T14:32:25.669Z,4.60
2023-03-30T14:34:58.822Z,4.20
2023-03-30T14:37:34.045Z,4.00
2023-03-30T14:40:16.154Z,4.60
2023-03-30T14:42:48.932Z,4.10
2023-03-30T14:45:22.765Z,4.50
2023-03-30T14:47:57.032Z,4.50
2023-03-30T14:50:30.719Z,4.70
2023-03-30T14:53:04.444Z,4.00
2023-03-30T14:55:38.875Z,3.60
2023-03-30T14:58:16.322Z,5.10
2023-03-30T15:00:49.016Z,4.30
2023-03-30T15:03:32.789Z,4.30
2023-03-30T15:06:09.835Z,5.30
2023-03-30T15:08:47.853Z,4.80
2023-03-30T15:11:24.337Z,4.50
2023-03-30T15:13:59.546Z,4.40
2023-03-30T15:16:36.168Z,3.50
2023-03-30T15:19:14.264Z,4.00
2023-03-30T15:21:47.022Z,4.70
2023-03-30T15:24:23.729Z,4.60
2023-03-30T15:27:00.904Z,4.60
2023-03-30T15:29:34.649Z,5.40
2023-03-30T15:35:04.100Z,4.80
2023-03-30T15:37:37.578Z,5.50
2023-03-30T15:43:21.057Z,7.00
2023-03-30T15:45:56.522Z,9.40
2023-03-30T15:48:34.753Z,6.60
2023-03-30T15:51:11.472Z,5.80
2023-03-30T15:53:55.058Z,5.20
2023-03-30T15:56:35.359Z,6.40
2023-03-30T15:59:13.699Z,5.00
2023-03-30T16:01:49.832Z,6.10
2023-03-30T16:04:24.516Z,4.70
2023-03-30T16:06:57.241Z,5.10
2023-03-30T16:09:30.388Z,5.50
2023-03-30T16:12:03.265Z,5.30
2023-03-30T16:14:37.064Z,5.30
2023-03-30T16:17:13.407Z,5.50
2023-03-30T16:19:46.529Z,5.60
2023-03-30T16:22:19.378Z,6.50
2023-03-30T16:24:53.643Z,7.40
2023-03-30T16:27:26.476Z,7.00
2023-03-30T16:29:59.359Z,6.70
2023-03-30T16:32:35.644Z,6.40
2023-03-30T16:35:09.609Z,7.00
2023-03-30T16:37:42.467Z,6.30
2023-03-30T16:40:27.569Z,5.70
2023-03-30T16:43:03.327Z,7.40
2023-03-30T16:45:36.910Z,15.50
2023-03-30T16:48:11.448Z,8.30
2023-03-30T16:50:47.975Z,6.80
2023-03-30T16:53:20.819Z,6.50
2023-03-30T16:55:54.056Z,7.40
2023-03-30T16:58:26.687Z,10.80
2023-03-30T17:01:04.535Z,7.80
2023-03-30T17:03:37.795Z,10.70
2023-03-30T17:06:11.407Z,18.00
2023-03-30T17:11:17.449Z,8.10
2023-03-30T17:13:51.466Z,7.20
2023-03-30T17:16:27.643Z,7.70
2023-03-30T17:19:01.480Z,7.90
2023-03-30T17:21:35.945Z,8.40
2023-03-30T17:24:10.614Z,9.80
2023-03-30T17:26:46.311Z,9.40
2023-03-30T17:29:19.514Z,8.10
2023-03-30T17:31:52.735Z,10.20
2023-03-30T17:34:25.433Z,10.00
2023-03-30T17:36:58.471Z,12.80
2023-03-30T17:39:33.015Z,12.10
2023-03-30T17:42:06.303Z,11.40
2023-03-30T17:44:39.267Z,11.40
2023-03-30T17:47:12.483Z,10.20
2023-03-30T17:52:17.219Z,7.60
2023-03-30T17:54:52.065Z,8.00
2023-03-30T17:57:26.457Z,8.80
2023-03-30T17:59:59.885Z,8.70
2023-03-30T18:02:32.757Z,10.10
2023-03-30T18:05:05.783Z,9.10
2023-03-30T18:07:41.259Z,8.90
2023-03-30T18:10:27.134Z,8.40
2023-03-30T18:12:59.965Z,8.50
2023-03-30T18:15:33.398Z,8.40
2023-03-30T18:18:06.875Z,8.50
2023-03-30T18:20:43.377Z,8.50
2023-03-30T18:23:16.607Z,8.60
2023-03-30T18:25:49.556Z,8.30
2023-03-30T18:28:24.029Z,9.50
2023-03-30T18:30:59.195Z,8.80
2023-03-30T18:33:33.486Z,9.70
2023-03-30T18:36:08.563Z,10.40
2023-03-30T18:38:41.724Z,9.80
2023-03-30T18:41:16.185Z,9.80
2023-03-30T18:43:48.852Z,8.50
2023-03-30T18:46:21.714Z,9.90
2023-03-30T18:48:54.549Z,9.00
2023-03-30T18:51:30.874Z,8.70
2023-03-30T18:54:03.563Z,9.60
2023-03-30T18:56:38.291Z,8.80
2023-03-30T18:59:12.997Z,9.40
2023-03-30T19:01:46.386Z,8.70
2023-03-30T19:04:19.011Z,8.50
2023-03-30T19:06:53.456Z,9.10
2023-03-30T19:09:40.234Z,8.50
2023-03-30T19:12:16.702Z,8.60
2023-03-30T19:17:20.443Z,8.50
2023-03-30T19:19:55.345Z,9.30
2023-03-30T19:22:28.274Z,8.90
2023-03-30T19:25:01.846Z,9.00
2023-03-30T19:27:34.843Z,8.40
2023-03-30T19:30:11.894Z,10.10
2023-03-30T19:32:46.101Z,8.70
2023-03-30T19:35:19.742Z,10.90
2023-03-30T19:37:52.538Z,9.60
2023-03-30T19:40:26.021Z,10.30
2023-03-30T19:43:04.796Z,8.80
2023-03-30T19:45:39.048Z,9.70
2023-03-30T19:48:12.484Z,9.40
2023-03-30T19:50:46.319Z,9.20
2023-03-30T19:53:19.078Z,9.10
2023-03-30T19:55:51.822Z,9.90
2023-03-30T19:58:24.750Z,9.80
2023-03-30T20:00:58.225Z,9.40
2023-03-30T20:03:31.798Z,10.60
2023-03-30T20:06:05.057Z,10.20
2023-03-30T20:08:38.116Z,10.20
2023-03-30T20:11:12.943Z,9.90
2023-03-30T20:13:48.244Z,10.50
2023-03-30T20:16:22.888Z,11.10
2023-03-30T20:18:57.817Z,9.90
2023-03-30T20:21:31.600Z,11.00
2023-03-30T20:24:08.458Z,9.40
2023-03-30T20:26:43.065Z,11.10
2023-03-30T20:29:15.814Z,10.20
2023-03-30T20:31:49.639Z,11.00
2023-03-30T20:34:24.735Z,11.20
2023-03-30T20:36:57.917Z,10.70
2023-03-30T20:39:31.558Z,11.30
2023-03-30T20:42:08.737Z,10.90
2023-03-30T20:44:41.655Z,11.40
2023-03-30T20:47:18.019Z,10.70
2023-03-30T20:49:51.148Z,11.10
2023-03-30T20:52:24.399Z,10.30
2023-03-30T20:54:58.007Z,10.50
2023-03-30T20:57:32.454Z,10.20
2023-03-30T21:00:07.762Z,11.50
2023-03-30T21:02:41.195Z,9.70
2023-03-30T21:05:16.602Z,10.50
2023-03-30T21:07:49.862Z,10.50
2023-03-30T21:10:22.693Z,10.50
2023-03-30T21:12:55.360Z,9.50
2023-03-30T21:15:28.002Z,9.40
2023-03-30T21:18:02.412Z,8.60
2023-03-30T21:20:35.262Z,9.10
2023-03-30T21:23:08.119Z,8.60
2023-03-30T21:25:43.110Z,9.20
2023-03-30T21:28:16.027Z,8.80
2023-03-30T21:30:49.132Z,9.50
2023-03-30T21:33:22.334Z,9.40
2023-03-30T21:35:56.027Z,9.40
2023-03-30T21:38:30.731Z,8.60
2023-03-30T21:41:06.759Z,9.60
2023-03-30T21:43:43.306Z,8.90
2023-03-30T21:46:18.410Z,8.80
2023-03-30T21:48:53.949Z,9.20
2023-03-30T21:51:29.371Z,9.30
2023-03-30T21:54:02.521Z,9.00
2023-03-30T21:56:34.923Z,9.20
2023-03-30T21:59:08.438Z,8.90
2023-03-30T22:04:13.235Z,8.40
2023-03-30T22:06:46.236Z,8.60
2023-03-30T22:09:19.234Z,8.60
2023-03-30T22:11:54.069Z,8.60
2023-03-30T22:14:26.759Z,8.80
2023-03-30T22:17:03.384Z,8.90
2023-03-30T22:19:37.549Z,8.70
2023-03-30T22:22:10.115Z,9.00
2023-03-30T22:24:42.866Z,9.20
2023-03-30T22:27:16.788Z,9.60
2023-03-30T22:29:50.074Z,8.90
2023-03-30T22:32:22.867Z,9.20
2023-03-30T22:34:56.361Z,9.30
2023-03-30T22:37:29.486Z,9.20
2023-03-30T22:40:02.138Z,10.10
2023-03-30T22:42:36.257Z,9.70
2023-03-30T22:45:11.988Z,8.50
2023-03-30T22:47:44.938Z,9.30
2023-03-30T22:50:18.456Z,9.90
2023-03-30T22:52:51.019Z,10.00
2023-03-30T22:55:24.528Z,9.50
2023-03-30T22:57:58.304Z,11.10
2023-03-30T23:03:02.052Z,9.90
2023-03-30T23:05:35.554Z,9.70
2023-03-30T23:10:39.832Z,10.10
2023-03-30T23:13:12.618Z,11.10
2023-03-30T23:15:48.999Z,10.70
2023-03-30T23:18:21.671Z,12.90
2023-03-30T23:20:58.430Z,15.20
2023-03-30T23:23:31.414Z,16.30
2023-03-30T23:26:09.732Z,17.40
2023-03-30T23:28:45.613Z,17.10
2023-03-30T23:31:19.638Z,19.30
2023-03-30T23:33:53.170Z,17.60
2023-03-30T23:36:28.072Z,17.60
2023-03-30T23:39:00.703Z,18.20
2023-03-30T23:41:33.585Z,19.40
2023-03-30T23:44:06.453Z,18.70
2023-03-30T23:46:39.736Z,18.60
2023-03-30T23:49:12.547Z,18.60
2023-03-30T23:51:45.396Z,19.60
2023-03-30T23:54:18.686Z,19.40
2023-03-30T23:56:57.965Z,19.20
2023-03-30T23:59:30.885Z,18.50
